sensor_id;sensor_type;location;lat;lon;timestamp;temperature;humidity
5850;DHT22;2951;47.712;9.400;2023-09-18T00:00:57;18.80;99.90
5850;DHT22;2951;47.712;9.400;2023-09-18T00:03:24;18.80;99.90
5850;DHT22;2951;47.712;9.400;2023-09-18T00:05:52;18.80;99.90
5850;DHT22;2951;47.712;9.400;2023-09-18T00:08:19;18.90;99.90
5850;DHT22;2951;47.712;9.400;2023-09-18T00:10:49;18.90;99.90
5850;DHT22;2951;47.712;9.400;2023-09-18T00:13:17;18.90;99.90
5850;DHT22;2951;47.712;9.400;2023-09-18T00:15:44;19.00;99.90
5850;DHT22;2951;47.712;9.400;2023-09-18T00:18:16;19.00;99.90
5850;DHT22;2951;47.712;9.400;2023-09-18T00:20:43;19.00;99.90
5850;DHT22;2951;47.712;9.400;2023-09-18T00:23:10;18.90;99.90
5850;DHT22;2951;47.712;9.400;2023-09-18T00:25:36;18.80;99.90
5850;DHT22;2951;47.712;9.400;2023-09-18T00:28:04;18.70;99.90
5850;DHT22;2951;47.712;9.400;2023-09-18T00:30:30;18.70;99.90
5850;DHT22;2951;47.712;9.400;2023-09-18T00:32:57;18.60;99.90
5850;DHT22;2951;47.712;9.400;2023-09-18T00:35:25;18.60;99.90
5850;DHT22;2951;47.712;9.400;2023-09-18T00:37:52;18.50;99.90
5850;DHT22;2951;47.712;9.400;2023-09-18T00:40:19;18.30;99.90
5850;DHT22;2951;47.712;9.400;2023-09-18T00:42:45;18.30;99.90
5850;DHT22;2951;47.712;9.400;2023-09-18T00:45:12;18.30;99.90
5850;DHT22;2951;47.712;9.400;2023-09-18T00:47:39;18.40;99.90
5850;DHT22;2951;47.712;9.400;2023-09-18T00:50:06;18.30;99.90
5850;DHT22;2951;47.712;9.400;2023-09-18T00:52:38;18.30;99.90
5850;DHT22;2951;47.712;9.400;2023-09-18T00:55:05;18.20;99.90
5850;DHT22;2951;47.712;9.400;2023-09-18T00:57:34;18.10;99.90
5850;DHT22;2951;47.712;9.400;2023-09-18T01:00:02;18.20;99.90
5850;DHT22;2951;47.712;9.400;2023-09-18T01:02:30;18.30;99.90
5850;DHT22;2951;47.712;9.400;2023-09-18T01:04:58;18.20;99.90
5850;DHT22;2951;47.712;9.400;2023-09-18T01:07:25;18.10;99.90
5850;DHT22;2951;47.712;9.400;2023-09-18T01:09:53;18.00;99.90
5850;DHT22;2951;47.712;9.400;2023-09-18T01:12:23;18.00;99.90
5850;DHT22;2951;47.712;9.400;2023-09-18T01:14:57;18.00;99.90
5850;DHT22;2951;47.712;9.400;2023-09-18T01:17:28;18.00;99.90
5850;DHT22;2951;47.712;9.400;2023-09-18T01:19:55;18.00;99.90
5850;DHT22;2951;47.712;9.400;2023-09-18T01:22:22;18.10;99.90
5850;DHT22;2951;47.712;9.400;2023-09-18T01:24:51;18.10;99.90
5850;DHT22;2951;47.712;9.400;2023-09-18T01:27:18;18.10;99.90
5850;DHT22;2951;47.712;9.400;2023-09-18T01:29:45;18.10;99.90
5850;DHT22;2951;47.712;9.400;2023-09-18T01:32:13;18.10;99.90
5850;DHT22;2951;47.712;9.400;2023-09-18T01:34:45;18.00;99.90
5850;DHT22;2951;47.712;9.400;2023-09-18T01:37:12;18.00;99.90
5850;DHT22;2951;47.712;9.400;2023-09-18T01:39:40;18.00;99.90
5850;DHT22;2951;47.712;9.400;2023-09-18T01:42:08;17.70;99.90
5850;DHT22;2951;47.712;9.400;2023-09-18T01:44:37;17.70;99.90
5850;DHT22;2951;47.712;9.400;2023-09-18T01:47:08;17.80;99.90
5850;DHT22;2951;47.712;9.400;2023-09-18T01:49:35;17.80;99.90
5850;DHT22;2951;47.712;9.400;2023-09-18T01:52:03;17.80;99.90
5850;DHT22;2951;47.712;9.400;2023-09-18T01:54:31;17.70;99.90
5850;DHT22;2951;47.712;9.400;2023-09-18T01:56:57;17.80;99.90
5850;DHT22;2951;47.712;9.400;2023-09-18T01:59:25;17.90;99.90
5850;DHT22;2951;47.712;9.400;2023-09-18T02:01:52;17.90;99.90
5850;DHT22;2951;47.712;9.400;2023-09-18T02:04:20;17.80;99.90
5850;DHT22;2951;47.712;9.400;2023-09-18T02:06:54;17.80;99.90
5850;DHT22;2951;47.712;9.400;2023-09-18T02:09:21;17.90;99.90
5850;DHT22;2951;47.712;9.400;2023-09-18T02:11:48;17.90;99.90
5850;DHT22;2951;47.712;9.400;2023-09-18T02:14:15;17.90;99.90
5850;DHT22;2951;47.712;9.400;2023-09-18T02:16:42;17.80;99.90
5850;DHT22;2951;47.712;9.400;2023-09-18T02:19:12;17.80;99.90
5850;DHT22;2951;47.712;9.400;2023-09-18T02:21:40;17.80;99.90
5850;DHT22;2951;47.712;9.400;2023-09-18T02:24:07;17.80;99.90
5850;DHT22;2951;47.712;9.400;2023-09-18T02:26:34;17.80;99.90
5850;DHT22;2951;47.712;9.400;2023-09-18T02:29:03;17.70;99.90
5850;DHT22;2951;47.712;9.400;2023-09-18T02:31:30;17.70;99.90
5850;DHT22;2951;47.712;9.400;2023-09-18T02:33:58;17.80;99.90
5850;DHT22;2951;47.712;9.400;2023-09-18T02:36:24;17.60;99.90
5850;DHT22;2951;47.712;9.400;2023-09-18T02:38:51;17.60;99.90
5850;DHT22;2951;47.712;9.400;2023-09-18T02:41:18;17.70;99.90
5850;DHT22;2951;47.712;9.400;2023-09-18T02:43:45;17.60;99.90
5850;DHT22;2951;47.712;9.400;2023-09-18T02:46:11;17.60;99.90
5850;DHT22;2951;47.712;9.400;2023-09-18T02:48:38;17.60;99.90
5850;DHT22;2951;47.712;9.400;2023-09-18T02:51:08;17.60;99.90
5850;DHT22;2951;47.712;9.400;2023-09-18T02:53:35;17.60;99.90
5850;DHT22;2951;47.712;9.400;2023-09-18T02:56:03;17.50;99.90
5850;DHT22;2951;47.712;9.400;2023-09-18T02:58:30;17.60;99.90
5850;DHT22;2951;47.712;9.400;2023-09-18T03:00:57;17.60;99.90
5850;DHT22;2951;47.712;9.400;2023-09-18T03:03:26;17.50;99.90
5850;DHT22;2951;47.712;9.400;2023-09-18T03:05:53;17.40;99.90
5850;DHT22;2951;47.712;9.400;2023-09-18T03:08:19;17.40;99.90
5850;DHT22;2951;47.712;9.400;2023-09-18T03:10:47;17.40;99.90
5850;DHT22;2951;47.712;9.400;2023-09-18T03:13:14;17.40;99.90
5850;DHT22;2951;47.712;9.400;2023-09-18T03:15:44;17.10;99.90
5850;DHT22;2951;47.712;9.400;2023-09-18T03:18:12;16.90;99.90
5850;DHT22;2951;47.712;9.400;2023-09-18T03:20:39;16.80;99.90
5850;DHT22;2951;47.712;9.400;2023-09-18T03:23:06;16.90;99.90
5850;DHT22;2951;47.712;9.400;2023-09-18T03:25:33;16.90;99.90
5850;DHT22;2951;47.712;9.400;2023-09-18T03:28:14;16.90;99.90
5850;DHT22;2951;47.712;9.400;2023-09-18T03:30:41;17.00;99.90
5850;DHT22;2951;47.712;9.400;2023-09-18T03:33:08;17.10;99.90
5850;DHT22;2951;47.712;9.400;2023-09-18T03:35:45;17.20;99.90
5850;DHT22;2951;47.712;9.400;2023-09-18T03:38:13;17.30;99.90
5850;DHT22;2951;47.712;9.400;2023-09-18T03:40:40;17.50;99.90
5850;DHT22;2951;47.712;9.400;2023-09-18T03:43:09;17.60;99.90
5850;DHT22;2951;47.712;9.400;2023-09-18T03:45:37;17.80;99.90
5850;DHT22;2951;47.712;9.400;2023-09-18T03:48:03;18.00;99.90
5850;DHT22;2951;47.712;9.400;2023-09-18T03:50:33;18.10;99.90
5850;DHT22;2951;47.712;9.400;2023-09-18T03:53:00;18.20;99.90
5850;DHT22;2951;47.712;9.400;2023-09-18T03:55:26;18.30;99.90
5850;DHT22;2951;47.712;9.400;2023-09-18T03:57:55;18.40;99.90
5850;DHT22;2951;47.712;9.400;2023-09-18T04:00:24;18.50;99.90
5850;DHT22;2951;47.712;9.400;2023-09-18T04:02:50;18.50;99.90
5850;DHT22;2951;47.712;9.400;2023-09-18T04:05:18;18.50;99.90
5850;DHT22;2951;47.712;9.400;2023-09-18T04:07:47;18.50;99.90
5850;DHT22;2951;47.712;9.400;2023-09-18T04:10:14;18.60;99.90
5850;DHT22;2951;47.712;9.400;2023-09-18T04:12:50;18.60;99.90
5850;DHT22;2951;47.712;9.400;2023-09-18T04:15:17;18.50;99.90
5850;DHT22;2951;47.712;9.400;2023-09-18T04:17:44;18.60;99.90
5850;DHT22;2951;47.712;9.400;2023-09-18T04:20:13;18.50;99.90
5850;DHT22;2951;47.712;9.400;2023-09-18T04:22:42;18.50;99.90
5850;DHT22;2951;47.712;9.400;2023-09-18T04:25:09;18.30;99.90
5850;DHT22;2951;47.712;9.400;2023-09-18T04:27:38;18.10;99.90
5850;DHT22;2951;47.712;9.400;2023-09-18T04:30:05;17.90;99.90
5850;DHT22;2951;47.712;9.400;2023-09-18T04:32:32;17.90;99.90
5850;DHT22;2951;47.712;9.400;2023-09-18T04:34:59;17.80;99.90
5850;DHT22;2951;47.712;9.400;2023-09-18T04:37:25;17.70;99.90
5850;DHT22;2951;47.712;9.400;2023-09-18T04:39:52;17.70;99.90
5850;DHT22;2951;47.712;9.400;2023-09-18T04:42:19;17.70;99.90
5850;DHT22;2951;47.712;9.400;2023-09-18T04:44:46;17.70;99.90
5850;DHT22;2951;47.712;9.400;2023-09-18T04:47:12;17.70;99.90
5850;DHT22;2951;47.712;9.400;2023-09-18T04:49:39;17.60;99.90
5850;DHT22;2951;47.712;9.400;2023-09-18T04:52:12;17.50;99.90
5850;DHT22;2951;47.712;9.400;2023-09-18T04:54:39;17.50;99.90
5850;DHT22;2951;47.712;9.400;2023-09-18T04:57:06;17.50;99.90
5850;DHT22;2951;47.712;9.400;2023-09-18T04:59:33;17.50;99.90
5850;DHT22;2951;47.712;9.400;2023-09-18T05:01:59;17.50;99.90
5850;DHT22;2951;47.712;9.400;2023-09-18T05:04:26;17.50;99.90
5850;DHT22;2951;47.712;9.400;2023-09-18T05:06:53;17.50;99.90
5850;DHT22;2951;47.712;9.400;2023-09-18T05:09:19;17.50;99.90
5850;DHT22;2951;47.712;9.400;2023-09-18T05:11:47;17.50;99.90
5850;DHT22;2951;47.712;9.400;2023-09-18T05:14:17;17.50;99.90
5850;DHT22;2951;47.712;9.400;2023-09-18T05:16:48;17.50;99.90
5850;DHT22;2951;47.712;9.400;2023-09-18T05:19:15;17.50;99.90
5850;DHT22;2951;47.712;9.400;2023-09-18T05:21:41;17.60;99.90
5850;DHT22;2951;47.712;9.400;2023-09-18T05:24:10;17.70;99.90
5850;DHT22;2951;47.712;9.400;2023-09-18T05:26:37;17.60;99.90
5850;DHT22;2951;47.712;9.400;2023-09-18T05:29:03;17.70;99.90
5850;DHT22;2951;47.712;9.400;2023-09-18T05:31:30;17.70;99.90
5850;DHT22;2951;47.712;9.400;2023-09-18T05:33:59;17.80;99.90
5850;DHT22;2951;47.712;9.400;2023-09-18T05:36:26;17.80;99.90
5850;DHT22;2951;47.712;9.400;2023-09-18T05:38:56;17.80;99.90
5850;DHT22;2951;47.712;9.400;2023-09-18T05:41:22;17.90;99.90
5850;DHT22;2951;47.712;9.400;2023-09-18T05:43:52;17.90;99.90
5850;DHT22;2951;47.712;9.400;2023-09-18T05:46:24;17.80;99.90
5850;DHT22;2951;47.712;9.400;2023-09-18T05:48:53;17.90;99.90
5850;DHT22;2951;47.712;9.400;2023-09-18T05:51:26;18.00;99.90
5850;DHT22;2951;47.712;9.400;2023-09-18T05:53:53;18.20;99.90
5850;DHT22;2951;47.712;9.400;2023-09-18T05:56:20;18.40;99.90
5850;DHT22;2951;47.712;9.400;2023-09-18T05:58:47;18.50;99.90
5850;DHT22;2951;47.712;9.400;2023-09-18T06:01:14;18.70;99.90
5850;DHT22;2951;47.712;9.400;2023-09-18T06:03:41;18.80;99.90
5850;DHT22;2951;47.712;9.400;2023-09-18T06:06:09;18.90;99.90
5850;DHT22;2951;47.712;9.400;2023-09-18T06:08:36;19.10;99.90
5850;DHT22;2951;47.712;9.400;2023-09-18T06:11:03;19.20;99.90
5850;DHT22;2951;47.712;9.400;2023-09-18T06:13:29;19.20;99.90
5850;DHT22;2951;47.712;9.400;2023-09-18T06:15:56;19.20;99.90
5850;DHT22;2951;47.712;9.400;2023-09-18T06:18:23;19.20;99.90
5850;DHT22;2951;47.712;9.400;2023-09-18T06:20:50;19.20;99.90
5850;DHT22;2951;47.712;9.400;2023-09-18T06:23:17;19.30;99.90
5850;DHT22;2951;47.712;9.400;2023-09-18T06:25:44;19.40;99.90
5850;DHT22;2951;47.712;9.400;2023-09-18T06:28:11;19.40;99.90
5850;DHT22;2951;47.712;9.400;2023-09-18T06:30:39;19.50;99.90
5850;DHT22;2951;47.712;9.400;2023-09-18T06:33:06;19.60;99.90
5850;DHT22;2951;47.712;9.400;2023-09-18T06:35:36;19.50;99.90
5850;DHT22;2951;47.712;9.400;2023-09-18T06:38:03;19.50;99.90
5850;DHT22;2951;47.712;9.400;2023-09-18T06:40:32;19.50;99.90
5850;DHT22;2951;47.712;9.400;2023-09-18T06:42:59;19.50;99.90
5850;DHT22;2951;47.712;9.400;2023-09-18T06:45:26;19.50;99.90
5850;DHT22;2951;47.712;9.400;2023-09-18T06:47:54;19.50;99.90
5850;DHT22;2951;47.712;9.400;2023-09-18T06:50:23;19.50;99.90
5850;DHT22;2951;47.712;9.400;2023-09-18T06:52:50;19.50;99.90
5850;DHT22;2951;47.712;9.400;2023-09-18T06:55:17;19.50;99.90
5850;DHT22;2951;47.712;9.400;2023-09-18T06:57:46;19.40;99.90
5850;DHT22;2951;47.712;9.400;2023-09-18T07:00:14;19.20;99.90
5850;DHT22;2951;47.712;9.400;2023-09-18T07:02:41;19.20;99.90
5850;DHT22;2951;47.712;9.400;2023-09-18T07:05:11;19.20;99.90
5850;DHT22;2951;47.712;9.400;2023-09-18T07:07:38;19.20;99.90
5850;DHT22;2951;47.712;9.400;2023-09-18T07:10:05;19.30;99.90
5850;DHT22;2951;47.712;9.400;2023-09-18T07:12:33;19.30;99.90
5850;DHT22;2951;47.712;9.400;2023-09-18T07:15:00;19.20;99.90
5850;DHT22;2951;47.712;9.400;2023-09-18T07:17:30;19.20;99.90
5850;DHT22;2951;47.712;9.400;2023-09-18T07:19:57;19.20;99.90
5850;DHT22;2951;47.712;9.400;2023-09-18T07:22:24;19.30;99.90
5850;DHT22;2951;47.712;9.400;2023-09-18T07:24:50;19.40;99.90
5850;DHT22;2951;47.712;9.400;2023-09-18T07:27:19;19.50;99.90
5850;DHT22;2951;47.712;9.400;2023-09-18T07:29:45;19.60;99.90
5850;DHT22;2951;47.712;9.400;2023-09-18T07:32:12;19.70;99.90
5850;DHT22;2951;47.712;9.400;2023-09-18T07:34:48;19.90;99.90
5850;DHT22;2951;47.712;9.400;2023-09-18T07:37:15;20.00;99.90
5850;DHT22;2951;47.712;9.400;2023-09-18T07:39:50;20.20;99.90
5850;DHT22;2951;47.712;9.400;2023-09-18T07:42:17;20.30;99.90
5850;DHT22;2951;47.712;9.400;2023-09-18T07:44:44;20.20;99.90
5850;DHT22;2951;47.712;9.400;2023-09-18T07:47:11;20.20;99.90
5850;DHT22;2951;47.712;9.400;2023-09-18T07:49:38;20.20;99.90
5850;DHT22;2951;47.712;9.400;2023-09-18T07:52:06;20.20;99.90
5850;DHT22;2951;47.712;9.400;2023-09-18T07:54:34;20.20;99.90
5850;DHT22;2951;47.712;9.400;2023-09-18T07:57:01;20.20;99.90
5850;DHT22;2951;47.712;9.400;2023-09-18T07:59:27;20.20;99.90
5850;DHT22;2951;47.712;9.400;2023-09-18T08:01:55;20.20;99.90
5850;DHT22;2951;47.712;9.400;2023-09-18T08:04:22;20.20;99.90
5850;DHT22;2951;47.712;9.400;2023-09-18T08:06:49;20.20;99.90
5850;DHT22;2951;47.712;9.400;2023-09-18T08:09:16;20.30;99.90
5850;DHT22;2951;47.712;9.400;2023-09-18T08:11:43;20.20;99.90
5850;DHT22;2951;47.712;9.400;2023-09-18T08:14:13;20.30;99.90
5850;DHT22;2951;47.712;9.400;2023-09-18T08:16:40;20.30;99.90
5850;DHT22;2951;47.712;9.400;2023-09-18T08:19:06;20.30;99.90
5850;DHT22;2951;47.712;9.400;2023-09-18T08:21:33;20.20;99.90
5850;DHT22;2951;47.712;9.400;2023-09-18T08:24:00;20.30;99.90
5850;DHT22;2951;47.712;9.400;2023-09-18T08:26:27;20.30;99.90
5850;DHT22;2951;47.712;9.400;2023-09-18T08:28:55;20.20;99.90
5850;DHT22;2951;47.712;9.400;2023-09-18T08:31:24;20.20;99.90
5850;DHT22;2951;47.712;9.400;2023-09-18T08:33:51;20.10;99.90
5850;DHT22;2951;47.712;9.400;2023-09-18T08:36:18;20.10;99.90
5850;DHT22;2951;47.712;9.400;2023-09-18T08:38:45;20.20;99.90
5850;DHT22;2951;47.712;9.400;2023-09-18T08:41:12;20.10;99.90
5850;DHT22;2951;47.712;9.400;2023-09-18T08:43:40;20.00;99.90
5850;DHT22;2951;47.712;9.400;2023-09-18T08:46:09;20.00;99.90
5850;DHT22;2951;47.712;9.400;2023-09-18T08:48:36;19.80;99.90
5850;DHT22;2951;47.712;9.400;2023-09-18T08:51:06;19.70;99.90
5850;DHT22;2951;47.712;9.400;2023-09-18T08:53:39;19.60;99.90
5850;DHT22;2951;47.712;9.400;2023-09-18T08:56:06;19.50;99.90
5850;DHT22;2951;47.712;9.400;2023-09-18T08:58:34;19.40;99.90
5850;DHT22;2951;47.712;9.400;2023-09-18T09:01:17;19.30;99.90
5850;DHT22;2951;47.712;9.400;2023-09-18T09:03:44;19.10;99.90
5850;DHT22;2951;47.712;9.400;2023-09-18T09:06:14;18.90;99.90
5850;DHT22;2951;47.712;9.400;2023-09-18T09:08:41;18.80;99.90
5850;DHT22;2951;47.712;9.400;2023-09-18T09:11:08;18.60;99.90
5850;DHT22;2951;47.712;9.400;2023-09-18T09:13:36;18.40;99.90
5850;DHT22;2951;47.712;9.400;2023-09-18T09:16:11;18.30;99.90
5850;DHT22;2951;47.712;9.400;2023-09-18T09:18:48;18.30;99.90
5850;DHT22;2951;47.712;9.400;2023-09-18T09:21:15;18.10;99.90
5850;DHT22;2951;47.712;9.400;2023-09-18T09:23:47;18.20;99.90
5850;DHT22;2951;47.712;9.400;2023-09-18T09:26:16;18.10;99.90
5850;DHT22;2951;47.712;9.400;2023-09-18T09:28:43;18.00;99.90
5850;DHT22;2951;47.712;9.400;2023-09-18T09:31:10;17.90;99.90
5850;DHT22;2951;47.712;9.400;2023-09-18T09:33:37;17.90;99.90
5850;DHT22;2951;47.712;9.400;2023-09-18T09:36:05;17.90;99.90
5850;DHT22;2951;47.712;9.400;2023-09-18T09:38:33;17.90;99.90
5850;DHT22;2951;47.712;9.400;2023-09-18T09:41:00;18.00;99.90
5850;DHT22;2951;47.712;9.400;2023-09-18T09:43:28;18.10;99.90
5850;DHT22;2951;47.712;9.400;2023-09-18T09:46:02;18.10;99.90
5850;DHT22;2951;47.712;9.400;2023-09-18T09:48:29;18.10;99.90
5850;DHT22;2951;47.712;9.400;2023-09-18T09:51:02;18.10;99.90
5850;DHT22;2951;47.712;9.400;2023-09-18T09:53:42;18.10;99.90
5850;DHT22;2951;47.712;9.400;2023-09-18T09:56:10;18.10;99.90
5850;DHT22;2951;47.712;9.400;2023-09-18T09:58:37;18.20;99.90
5850;DHT22;2951;47.712;9.400;2023-09-18T10:01:04;18.20;99.90
5850;DHT22;2951;47.712;9.400;2023-09-18T10:03:35;18.20;99.90
5850;DHT22;2951;47.712;9.400;2023-09-18T10:06:08;18.10;99.90
5850;DHT22;2951;47.712;9.400;2023-09-18T10:08:35;18.20;99.90
5850;DHT22;2951;47.712;9.400;2023-09-18T10:11:08;18.10;99.90
5850;DHT22;2951;47.712;9.400;2023-09-18T10:13:46;18.20;99.90
5850;DHT22;2951;47.712;9.400;2023-09-18T10:16:13;18.10;99.90
5850;DHT22;2951;47.712;9.400;2023-09-18T10:21:10;18.20;99.90
5850;DHT22;2951;47.712;9.400;2023-09-18T10:23:53;18.30;99.90
5850;DHT22;2951;47.712;9.400;2023-09-18T10:26:25;18.40;99.90
5850;DHT22;2951;47.712;9.400;2023-09-18T10:28:55;18.30;99.90
5850;DHT22;2951;47.712;9.400;2023-09-18T10:31:28;18.30;99.90
5850;DHT22;2951;47.712;9.400;2023-09-18T10:33:58;18.50;99.90
5850;DHT22;2951;47.712;9.400;2023-09-18T10:36:25;18.70;99.90
5850;DHT22;2951;47.712;9.400;2023-09-18T10:38:53;18.90;99.90
5850;DHT22;2951;47.712;9.400;2023-09-18T10:41:22;19.00;99.90
5850;DHT22;2951;47.712;9.400;2023-09-18T10:43:51;19.00;99.90
5850;DHT22;2951;47.712;9.400;2023-09-18T10:46:19;19.10;99.90
5850;DHT22;2951;47.712;9.400;2023-09-18T10:48:47;19.20;99.90
5850;DHT22;2951;47.712;9.400;2023-09-18T10:51:22;19.40;99.90
5850;DHT22;2951;47.712;9.400;2023-09-18T10:53:51;19.50;99.90
5850;DHT22;2951;47.712;9.400;2023-09-18T10:56:21;19.30;99.90
5850;DHT22;2951;47.712;9.400;2023-09-18T10:58:58;19.30;99.90
5850;DHT22;2951;47.712;9.400;2023-09-18T11:01:27;19.30;99.90
5850;DHT22;2951;47.712;9.400;2023-09-18T11:03:59;19.30;99.90
5850;DHT22;2951;47.712;9.400;2023-09-18T11:06:26;19.30;99.90
5850;DHT22;2951;47.712;9.400;2023-09-18T11:09:00;19.40;99.90
5850;DHT22;2951;47.712;9.400;2023-09-18T11:11:31;19.60;99.90
5850;DHT22;2951;47.712;9.400;2023-09-18T11:14:01;19.60;99.90
5850;DHT22;2951;47.712;9.400;2023-09-18T11:21:26;19.40;99.90
5850;DHT22;2951;47.712;9.400;2023-09-18T11:26:29;19.40;99.90
5850;DHT22;2951;47.712;9.400;2023-09-18T11:29:00;19.50;99.90
5850;DHT22;2951;47.712;9.400;2023-09-18T11:31:49;19.60;99.90
5850;DHT22;2951;47.712;9.400;2023-09-18T11:34:24;19.60;99.90
5850;DHT22;2951;47.712;9.400;2023-09-18T11:40:02;19.70;99.90
5850;DHT22;2951;47.712;9.400;2023-09-18T11:42:31;19.90;99.90
5850;DHT22;2951;47.712;9.400;2023-09-18T11:44:58;20.00;99.90
5850;DHT22;2951;47.712;9.400;2023-09-18T11:47:25;20.10;99.90
5850;DHT22;2951;47.712;9.400;2023-09-18T11:49:57;20.00;99.90
5850;DHT22;2951;47.712;9.400;2023-09-18T11:52:30;20.00;99.90
5850;DHT22;2951;47.712;9.400;2023-09-18T11:54:58;20.00;99.90
5850;DHT22;2951;47.712;9.400;2023-09-18T11:57:26;19.90;99.90
5850;DHT22;2951;47.712;9.400;2023-09-18T11:59:53;19.80;99.90
5850;DHT22;2951;47.712;9.400;2023-09-18T12:02:25;19.80;99.90
5850;DHT22;2951;47.712;9.400;2023-09-18T12:04:54;19.80;99.90
5850;DHT22;2951;47.712;9.400;2023-09-18T12:07:21;19.90;99.90
5850;DHT22;2951;47.712;9.400;2023-09-18T12:09:49;20.10;99.90
5850;DHT22;2951;47.712;9.400;2023-09-18T12:12:16;20.30;99.90
5850;DHT22;2951;47.712;9.400;2023-09-18T12:14:47;20.30;99.90
5850;DHT22;2951;47.712;9.400;2023-09-18T12:17:14;20.30;99.90
5850;DHT22;2951;47.712;9.400;2023-09-18T12:19:53;20.20;99.90
5850;DHT22;2951;47.712;9.400;2023-09-18T12:22:24;20.30;99.90
5850;DHT22;2951;47.712;9.400;2023-09-18T12:24:51;20.30;99.90
5850;DHT22;2951;47.712;9.400;2023-09-18T12:27:18;20.40;99.90
5850;DHT22;2951;47.712;9.400;2023-09-18T12:29:46;20.30;99.90
5850;DHT22;2951;47.712;9.400;2023-09-18T12:32:13;20.30;99.90
5850;DHT22;2951;47.712;9.400;2023-09-18T12:34:40;20.20;99.90
5850;DHT22;2951;47.712;9.400;2023-09-18T12:37:10;20.00;99.90
5850;DHT22;2951;47.712;9.400;2023-09-18T12:39:39;19.90;99.90
5850;DHT22;2951;47.712;9.400;2023-09-18T12:42:06;19.90;99.90
5850;DHT22;2951;47.712;9.400;2023-09-18T12:44:33;19.90;99.90
5850;DHT22;2951;47.712;9.400;2023-09-18T12:47:00;20.00;99.90
5850;DHT22;2951;47.712;9.400;2023-09-18T12:49:29;19.90;99.90
5850;DHT22;2951;47.712;9.400;2023-09-18T12:52:03;20.00;99.90
5850;DHT22;2951;47.712;9.400;2023-09-18T12:57:09;20.10;99.90
5850;DHT22;2951;47.712;9.400;2023-09-18T12:59:36;20.10;99.90
5850;DHT22;2951;47.712;9.400;2023-09-18T13:02:04;20.00;99.90
5850;DHT22;2951;47.712;9.400;2023-09-18T13:04:34;20.00;99.90
5850;DHT22;2951;47.712;9.400;2023-09-18T13:07:11;20.20;99.90
5850;DHT22;2951;47.712;9.400;2023-09-18T13:09:39;20.20;99.90
5850;DHT22;2951;47.712;9.400;2023-09-18T13:12:07;20.30;99.90
5850;DHT22;2951;47.712;9.400;2023-09-18T13:17:21;20.30;99.90
5850;DHT22;2951;47.712;9.400;2023-09-18T13:19:48;20.20;99.90
5850;DHT22;2951;47.712;9.400;2023-09-18T13:22:24;20.10;99.90
5850;DHT22;2951;47.712;9.400;2023-09-18T13:24:55;20.00;99.90
5850;DHT22;2951;47.712;9.400;2023-09-18T13:27:22;20.00;99.90
5850;DHT22;2951;47.712;9.400;2023-09-18T13:29:51;20.00;99.90
5850;DHT22;2951;47.712;9.400;2023-09-18T13:32:18;20.10;99.90
5850;DHT22;2951;47.712;9.400;2023-09-18T13:34:44;20.00;99.90
5850;DHT22;2951;47.712;9.400;2023-09-18T13:37:12;20.10;99.90
5850;DHT22;2951;47.712;9.400;2023-09-18T13:39:41;20.10;99.90
5850;DHT22;2951;47.712;9.400;2023-09-18T13:42:08;20.20;99.90
5850;DHT22;2951;47.712;9.400;2023-09-18T13:44:40;20.10;99.90
5850;DHT22;2951;47.712;9.400;2023-09-18T13:47:07;20.20;99.90
5850;DHT22;2951;47.712;9.400;2023-09-18T13:49:34;20.40;99.90
5850;DHT22;2951;47.712;9.400;2023-09-18T13:52:10;20.40;99.90
5850;DHT22;2951;47.712;9.400;2023-09-18T13:54:37;20.40;99.90
5850;DHT22;2951;47.712;9.400;2023-09-18T13:57:04;20.50;99.90
5850;DHT22;2951;47.712;9.400;2023-09-18T13:59:31;20.40;99.90
5850;DHT22;2951;47.712;9.400;2023-09-18T14:02:00;20.50;99.90
5850;DHT22;2951;47.712;9.400;2023-09-18T14:04:27;20.50;99.90
5850;DHT22;2951;47.712;9.400;2023-09-18T14:06:53;20.50;99.90
5850;DHT22;2951;47.712;9.400;2023-09-18T14:09:20;20.60;99.90
5850;DHT22;2951;47.712;9.400;2023-09-18T14:11:47;20.50;99.90
5850;DHT22;2951;47.712;9.400;2023-09-18T14:14:14;20.50;99.90
5850;DHT22;2951;47.712;9.400;2023-09-18T14:16:43;20.60;99.90
5850;DHT22;2951;47.712;9.400;2023-09-18T14:19:10;20.60;99.90
5850;DHT22;2951;47.712;9.400;2023-09-18T14:21:37;20.60;99.90
5850;DHT22;2951;47.712;9.400;2023-09-18T14:24:10;20.70;99.90
5850;DHT22;2951;47.712;9.400;2023-09-18T14:26:37;20.60;99.90
5850;DHT22;2951;47.712;9.400;2023-09-18T14:29:08;20.60;99.90
5850;DHT22;2951;47.712;9.400;2023-09-18T14:31:36;20.60;99.90
5850;DHT22;2951;47.712;9.400;2023-09-18T14:34:03;20.70;99.90
5850;DHT22;2951;47.712;9.400;2023-09-18T14:36:32;20.70;99.90
5850;DHT22;2951;47.712;9.400;2023-09-18T14:39:00;20.70;99.90
5850;DHT22;2951;47.712;9.400;2023-09-18T14:41:27;20.80;99.90
5850;DHT22;2951;47.712;9.400;2023-09-18T14:43:54;20.60;99.90
5850;DHT22;2951;47.712;9.400;2023-09-18T14:46:26;20.70;99.90
5850;DHT22;2951;47.712;9.400;2023-09-18T14:48:52;20.70;99.90
5850;DHT22;2951;47.712;9.400;2023-09-18T14:51:25;20.60;99.90
5850;DHT22;2951;47.712;9.400;2023-09-18T14:53:51;20.90;99.90
5850;DHT22;2951;47.712;9.400;2023-09-18T14:56:20;21.50;99.90
5850;DHT22;2951;47.712;9.400;2023-09-18T14:58:47;22.20;99.90
5850;DHT22;2951;47.712;9.400;2023-09-18T15:01:14;22.80;99.90
5850;DHT22;2951;47.712;9.400;2023-09-18T15:03:41;23.20;99.90
5850;DHT22;2951;47.712;9.400;2023-09-18T15:06:08;23.10;99.90
5850;DHT22;2951;47.712;9.400;2023-09-18T15:08:35;23.10;99.90
5850;DHT22;2951;47.712;9.400;2023-09-18T15:11:02;23.20;99.90
5850;DHT22;2951;47.712;9.400;2023-09-18T15:13:30;23.10;99.90
5850;DHT22;2951;47.712;9.400;2023-09-18T15:15:58;23.40;99.90
5850;DHT22;2951;47.712;9.400;2023-09-18T15:18:25;23.50;99.90
5850;DHT22;2951;47.712;9.400;2023-09-18T15:20:52;23.20;99.90
5850;DHT22;2951;47.712;9.400;2023-09-18T15:23:21;23.10;99.90
5850;DHT22;2951;47.712;9.400;2023-09-18T15:25:51;22.90;99.90
5850;DHT22;2951;47.712;9.400;2023-09-18T15:28:20;22.80;99.90
5850;DHT22;2951;47.712;9.400;2023-09-18T15:30:47;22.60;99.90
5850;DHT22;2951;47.712;9.400;2023-09-18T15:33:14;22.30;99.90
5850;DHT22;2951;47.712;9.400;2023-09-18T15:35:44;22.10;99.90
5850;DHT22;2951;47.712;9.400;2023-09-18T15:38:12;22.00;99.90
5850;DHT22;2951;47.712;9.400;2023-09-18T15:40:39;22.00;99.90
5850;DHT22;2951;47.712;9.400;2023-09-18T15:43:06;22.10;99.90
5850;DHT22;2951;47.712;9.400;2023-09-18T15:45:33;22.00;99.90
5850;DHT22;2951;47.712;9.400;2023-09-18T15:48:03;22.00;99.90
5850;DHT22;2951;47.712;9.400;2023-09-18T15:50:36;21.90;99.90
5850;DHT22;2951;47.712;9.400;2023-09-18T15:53:04;21.80;99.90
5850;DHT22;2951;47.712;9.400;2023-09-18T15:55:31;21.80;99.90
5850;DHT22;2951;47.712;9.400;2023-09-18T15:57:57;21.70;99.90
5850;DHT22;2951;47.712;9.400;2023-09-18T16:00:24;21.70;99.90
5850;DHT22;2951;47.712;9.400;2023-09-18T16:02:51;21.60;99.90
5850;DHT22;2951;47.712;9.400;2023-09-18T16:05:18;21.20;99.90
5850;DHT22;2951;47.712;9.400;2023-09-18T16:07:54;21.30;99.90
5850;DHT22;2951;47.712;9.400;2023-09-18T16:10:32;21.30;99.90
5850;DHT22;2951;47.712;9.400;2023-09-18T16:12:59;21.10;99.90
5850;DHT22;2951;47.712;9.400;2023-09-18T16:15:26;21.10;99.90
5850;DHT22;2951;47.712;9.400;2023-09-18T16:17:56;21.00;99.90
5850;DHT22;2951;47.712;9.400;2023-09-18T16:20:23;20.90;99.90
5850;DHT22;2951;47.712;9.400;2023-09-18T16:22:50;20.80;99.90
5850;DHT22;2951;47.712;9.400;2023-09-18T16:25:17;20.70;99.90
5850;DHT22;2951;47.712;9.400;2023-09-18T16:27:44;20.60;99.90